Time;durP1;ratioP1;P1;durP2;ratioP2;P2;SDS_P1;SDS_P2;PMS_P1;PMS_P2;Temp;Humidity;BMP_temperature;BMP_pressure;BME280_temperature;BME280_humidity;BME280_pressure;Samples;Min_cycle;Max_cycle;Signal;HPM_P1;HPM_P2
2020/12/19 00:01:53;;;;;;;25.10;13.07;;;3.00;99.90;;;;;;5072121;28;20401;-46
2020/12/19 00:04:35;;;;;;;28.75;17.10;;;3.10;99.90;;;;;;5070881;28;20080;-45
2020/12/19 00:07:03;;;;;;;30.10;18.00;;;3.20;99.90;;;;;;5071249;28;21458;-45
2020/12/19 00:09:30;;;;;;;18.15;12.85;;;3.20;99.90;;;;;;5087608;28;20045;-46
2020/12/19 00:11:57;;;;;;;23.00;15.65;;;3.20;99.90;;;;;;5067510;28;20053;-45
2020/12/19 00:14:23;;;;;;;25.10;17.08;;;3.20;99.90;;;;;;5065150;28;20044;-46
2020/12/19 00:16:50;;;;;;;25.77;15.60;;;3.20;99.90;;;;;;5074522;28;20056;-46
2020/12/19 00:19:16;;;;;;;22.90;15.15;;;3.20;99.90;;;;;;5075999;28;20060;-46
2020/12/19 00:21:43;;;;;;;18.77;12.27;;;3.20;99.90;;;;;;5072494;28;20067;-45
2020/12/19 00:24:09;;;;;;;19.33;13.07;;;3.20;99.90;;;;;;5069451;28;20041;-46
2020/12/19 00:26:38;;;;;;;14.05;10.30;;;3.20;99.90;;;;;;5054627;28;20405;-46
2020/12/19 00:29:06;;;;;;;20.33;11.10;;;3.30;99.90;;;;;;5071742;28;20051;-45
2020/12/19 00:31:34;;;;;;;20.40;11.75;;;3.20;99.90;;;;;;5071764;28;20044;-46
2020/12/19 00:34:02;;;;;;;17.05;11.45;;;3.30;99.90;;;;;;5071890;28;20063;-46
2020/12/19 00:36:28;;;;;;;19.73;10.55;;;3.30;99.90;;;;;;5070719;28;20056;-46
2020/12/19 00:38:55;;;;;;;12.82;10.35;;;3.30;99.90;;;;;;5080309;28;20049;-46
2020/12/19 00:41:25;;;;;;;16.80;12.20;;;3.20;99.90;;;;;;5069899;28;20052;-46
2020/12/19 00:43:54;;;;;;;19.15;11.25;;;3.20;99.90;;;;;;5072427;28;20393;-46
2020/12/19 00:46:22;;;;;;;23.17;12.60;;;3.20;99.90;;;;;;5065313;28;20056;-46
2020/12/19 00:48:49;;;;;;;17.08;11.30;;;3.20;99.90;;;;;;5068009;28;20059;-46
2020/12/19 00:51:17;;;;;;;19.20;13.02;;;3.20;99.90;;;;;;5071535;28;20048;-46
2020/12/19 00:53:45;;;;;;;20.33;10.82;;;3.30;99.90;;;;;;5070078;28;20044;-46
2020/12/19 00:56:23;;;;;;;13.43;9.95;;;3.30;99.90;;;;;;5053582;28;20057;-47
2020/12/19 00:58:54;;;;;;;21.45;12.88;;;3.20;99.90;;;;;;5070197;28;20040;-46
2020/12/19 01:01:23;;;;;;;18.58;12.55;;;3.10;99.90;;;;;;5071013;28;20053;-46
2020/12/19 01:03:52;;;;;;;17.83;12.95;;;2.90;99.90;;;;;;5068954;28;20053;-46
2020/12/19 01:06:21;;;;;;;19.77;14.40;;;2.80;99.90;;;;;;5061516;28;20059;-45
2020/12/19 01:08:49;;;;;;;19.48;13.55;;;2.70;99.90;;;;;;5083840;28;20763;-46
2020/12/19 01:11:29;;;;;;;21.13;13.65;;;2.60;99.90;;;;;;5069430;28;20063;-46
2020/12/19 01:13:56;;;;;;;16.55;12.18;;;2.50;99.90;;;;;;5074868;28;20048;-46
2020/12/19 01:16:28;;;;;;;20.73;12.73;;;2.40;99.90;;;;;;5065162;28;20490;-46
2020/12/19 01:18:57;;;;;;;18.80;15.68;;;2.50;99.90;;;;;;5069385;28;20049;-46
2020/12/19 01:21:26;;;;;;;23.33;14.18;;;2.50;99.90;;;;;;5070636;28;20045;-47
2020/12/19 01:23:54;;;;;;;59.17;18.23;;;2.40;99.90;;;;;;5069336;28;20045;-46
2020/12/19 01:26:22;;;;;;;23.15;15.95;;;2.40;99.90;;;;;;5066193;28;20044;-46
2020/12/19 01:28:49;;;;;;;18.80;11.02;;;2.30;99.90;;;;;;5067991;28;20048;-46
2020/12/19 01:31:18;;;;;;;17.35;12.38;;;2.40;99.90;;;;;;5068372;28;20053;-45
2020/12/19 01:33:46;;;;;;;21.50;7.90;;;2.40;99.90;;;;;;5068644;28;20079;-45
2020/12/19 01:36:18;;;;;;;15.73;8.68;;;2.30;99.90;;;;;;5069243;28;20045;-46
2020/12/19 01:38:46;;;;;;;7.82;6.78;;;2.20;99.90;;;;;;5084028;28;20048;-47
2020/12/19 01:41:13;;;;;;;11.25;7.20;;;2.10;99.90;;;;;;5064679;28;20045;-46
2020/12/19 01:43:55;;;;;;;8.05;5.55;;;2.00;99.90;;;;;;5068594;28;20518;-46
2020/12/19 01:46:31;;;;;;;96.30;5.55;;;2.00;99.90;;;;;;5071028;28;20478;-46
2020/12/19 01:49:01;;;;;;;67.90;5.93;;;2.10;99.90;;;;;;5069994;28;20746;-46
2020/12/19 01:51:28;;;;;;;36.80;3.58;;;2.10;99.90;;;;;;5062211;28;20064;-46
2020/12/19 01:53:56;;;;;;;4.32;3.92;;;2.10;99.90;;;;;;5071290;28;20049;-46
2020/12/19 01:56:41;;;;;;;46.47;5.65;;;2.10;99.90;;;;;;5066641;28;20053;-46
2020/12/19 01:59:08;;;;;;;12.48;4.88;;;2.00;99.90;;;;;;5066012;28;20049;-46
2020/12/19 02:01:48;;;;;;;9.82;4.82;;;2.00;99.90;;;;;;5067910;28;20053;-45
2020/12/19 02:04:17;;;;;;;16.02;4.40;;;2.10;99.90;;;;;;5070671;28;20041;-46
2020/12/19 02:06:47;;;;;;;14.43;5.57;;;1.90;99.90;;;;;;5067418;28;20041;-46
2020/12/19 02:09:16;;;;;;;31.80;7.55;;;1.80;99.90;;;;;;5071670;28;20048;-46
2020/12/19 02:11:43;;;;;;;51.22;5.38;;;1.70;99.90;;;;;;5072265;28;20052;-46
2020/12/19 02:14:11;;;;;;;16.67;4.75;;;1.70;99.90;;;;;;5069571;28;20048;-47
2020/12/19 02:16:37;;;;;;;13.00;4.13;;;1.70;99.90;;;;;;5072238;28;20048;-46
2020/12/19 02:19:14;;;;;;;6.53;4.70;;;1.70;99.90;;;;;;5074069;28;20634;-46
2020/12/19 02:21:41;;;;;;;3.75;3.38;;;1.80;99.90;;;;;;5056531;28;20053;-46
2020/12/19 02:24:08;;;;;;;3.67;3.38;;;1.90;99.90;;;;;;5063658;28;20040;-46
2020/12/19 02:26:35;;;;;;;3.00;2.80;;;1.90;99.90;;;;;;5052890;28;20457;-46
2020/12/19 02:29:02;;;;;;;9.07;7.07;;;2.00;99.90;;;;;;5066695;28;20048;-46
2020/12/19 02:31:28;;;;;;;11.93;7.18;;;1.90;99.90;;;;;;5057250;28;20052;-47
2020/12/19 02:33:54;;;;;;;5.80;5.15;;;1.90;99.90;;;;;;5070085;28;20390;-46
2020/12/19 02:36:23;;;;;;;3.65;3.35;;;1.90;99.90;;;;;;5067841;28;21064;-46
2020/12/19 02:38:49;;;;;;;6.80;5.00;;;1.80;99.90;;;;;;5082683;28;20056;-46
2020/12/19 02:41:17;;;;;;;4.95;4.65;;;1.80;99.90;;;;;;5072073;28;20484;-45
2020/12/19 02:43:54;;;;;;;7.97;4.75;;;1.70;99.90;;;;;;5060646;28;20045;-45
2020/12/19 02:46:21;;;;;;;18.40;7.68;;;1.80;99.90;;;;;;5068631;28;20060;-46
2020/12/19 02:48:48;;;;;;;161.32;15.82;;;1.70;99.90;;;;;;5075815;28;20048;-45
2020/12/19 02:51:15;;;;;;;42.80;11.27;;;1.50;99.90;;;;;;5070605;28;20049;-46
2020/12/19 02:53:42;;;;;;;106.13;13.63;;;1.40;99.90;;;;;;5072801;28;20048;-46
2020/12/19 02:56:08;;;;;;;42.45;11.60;;;1.20;99.90;;;;;;5075262;28;20059;-46
2020/12/19 02:58:35;;;;;;;111.03;9.15;;;1.10;99.90;;;;;;5070495;28;20045;-46
2020/12/19 03:01:01;;;;;;;4.57;3.60;;;1.20;99.90;;;;;;5070000;28;20048;-46
2020/12/19 03:03:28;;;;;;;11.20;7.75;;;1.30;99.90;;;;;;5066659;28;20045;-46
2020/12/19 03:05:55;;;;;;;16.35;6.15;;;1.40;99.90;;;;;;5065911;28;20067;-45
2020/12/19 03:08:22;;;;;;;9.07;5.10;;;1.50;99.90;;;;;;5065180;28;20045;-46
2020/12/19 03:10:50;;;;;;;20.38;4.50;;;1.50;99.90;;;;;;5079502;28;20041;-46
2020/12/19 03:13:17;;;;;;;6.18;3.45;;;1.50;99.90;;;;;;5069143;28;20127;-46
2020/12/19 03:15:43;;;;;;;4.30;2.70;;;1.60;99.90;;;;;;5070024;28;20057;-46
2020/12/19 03:18:09;;;;;;;10.57;5.10;;;1.70;99.90;;;;;;5074711;28;20040;-46
2020/12/19 03:20:36;;;;;;;34.00;5.50;;;1.60;99.90;;;;;;5064386;28;20047;-46
2020/12/19 03:23:02;;;;;;;47.00;8.18;;;1.30;99.90;;;;;;5062823;28;20041;-46
2020/12/19 03:25:29;;;;;;;15.73;7.57;;;1.10;99.90;;;;;;5070604;28;20047;-46
2020/12/19 03:27:56;;;;;;;140.95;12.48;;;1.10;99.90;;;;;;5073998;28;20056;-46
2020/12/19 03:30:25;;;;;;;42.58;8.13;;;1.00;99.90;;;;;;5071899;28;20048;-46
2020/12/19 03:32:53;;;;;;;31.08;6.85;;;1.00;99.90;;;;;;5066572;28;20049;-46
2020/12/19 03:35:21;;;;;;;15.48;8.80;;;0.90;99.90;;;;;;5073215;28;20067;-46
2020/12/19 03:37:48;;;;;;;11.85;7.78;;;1.00;99.90;;;;;;5071530;28;20461;-46
2020/12/19 03:40:16;;;;;;;16.05;9.13;;;1.10;99.90;;;;;;5072118;28;20068;-46
2020/12/19 03:42:42;;;;;;;43.65;8.85;;;1.10;99.90;;;;;;5073210;28;20044;-46
2020/12/19 03:45:09;;;;;;;14.80;8.75;;;0.80;99.90;;;;;;5072541;28;20074;-46
2020/12/19 03:47:35;;;;;;;122.22;11.93;;;0.80;99.90;;;;;;5068957;28;20449;-46
2020/12/19 03:50:03;;;;;;;44.65;7.75;;;0.70;99.90;;;;;;5070437;28;20433;-46
2020/12/19 03:52:30;;;;;;;94.55;11.30;;;0.60;99.90;;;;;;5055662;28;20489;-46
2020/12/19 03:54:57;;;;;;;74.75;9.15;;;0.70;99.90;;;;;;5071208;28;20728;-46
2020/12/19 03:57:23;;;;;;;188.00;13.20;;;0.60;99.90;;;;;;5073083;28;20057;-46
2020/12/19 03:59:50;;;;;;;187.25;12.18;;;0.30;99.90;;;;;;5071926;28;20044;-46
2020/12/19 04:02:16;;;;;;;174.82;12.38;;;0.20;99.90;;;;;;5071629;28;20044;-47
2020/12/19 04:04:43;;;;;;;123.90;10.05;;;0.00;99.90;;;;;;5071355;28;20048;-46
2020/12/19 04:07:11;;;;;;;133.07;9.13;;;0.00;99.90;;;;;;5070522;28;20046;-47
2020/12/19 04:09:38;;;;;;;66.40;6.07;;;0.00;99.90;;;;;;5072541;28;20052;-46
2020/12/19 04:12:05;;;;;;;85.75;7.32;;;0.00;99.90;;;;;;5069763;28;20048;-46
2020/12/19 04:14:38;;;;;;;18.42;4.78;;;0.10;99.90;;;;;;5062414;28;20058;-46
2020/12/19 04:17:09;;;;;;;114.93;8.45;;;0.10;99.90;;;;;;5072308;28;20072;-46
2020/12/19 04:19:37;;;;;;;83.45;7.80;;;0.10;99.90;;;;;;5080292;28;20098;-46
2020/12/19 04:22:04;;;;;;;26.98;4.07;;;0.00;99.90;;;;;;5059657;28;20049;-46
2020/12/19 04:24:31;;;;;;;9.52;3.20;;;0.10;99.90;;;;;;5065851;28;20052;-46
2020/12/19 04:26:59;;;;;;;4.43;2.42;;;0.10;99.90;;;;;;5072755;28;20054;-47
2020/12/19 04:29:26;;;;;;;13.05;3.00;;;0.20;99.90;;;;;;5070813;28;20409;-46
2020/12/19 04:31:54;;;;;;;3.75;2.55;;;0.30;99.90;;;;;;5070217;28;20048;-46
2020/12/19 04:34:21;;;;;;;4.15;1.95;;;0.50;99.90;;;;;;5065457;28;20056;-46
2020/12/19 04:36:48;;;;;;;3.15;2.15;;;0.60;99.90;;;;;;5062321;28;20432;-46
2020/12/19 04:39:16;;;;;;;2.53;2.28;;;0.60;99.90;;;;;;5072217;28;20586;-45
2020/12/19 04:41:42;;;;;;;2.35;2.05;;;0.70;99.90;;;;;;5070064;28;20040;-45
2020/12/19 04:44:09;;;;;;;2.95;1.88;;;0.70;99.90;;;;;;5071265;28;20043;-47
2020/12/19 04:46:40;;;;;;;3.05;1.67;;;0.70;99.90;;;;;;5070260;28;20041;-46
2020/12/19 04:49:07;;;;;;;3.95;2.78;;;0.70;99.90;;;;;;5078982;28;20052;-46
2020/12/19 04:51:35;;;;;;;6.15;2.28;;;0.80;99.90;;;;;;5074200;28;20442;-46
2020/12/19 04:54:04;;;;;;;8.95;3.45;;;0.70;99.90;;;;;;5081508;28;20052;-46
2020/12/19 04:56:31;;;;;;;4.60;3.83;;;0.70;99.90;;;;;;5072015;28;20053;-46
2020/12/19 04:59:00;;;;;;;483.63;23.48;;;0.60;99.90;;;;;;5071730;28;20041;-46
2020/12/19 05:01:27;;;;;;;397.63;19.02;;;0.40;99.90;;;;;;5060269;28;20041;-46
2020/12/19 05:03:55;;;;;;;56.00;4.68;;;0.20;99.90;;;;;;5067801;28;20071;-46
2020/12/19 05:06:23;;;;;;;59.55;6.72;;;0.20;99.90;;;;;;5060200;28;20068;-46
2020/12/19 05:08:50;;;;;;;42.28;4.53;;;0.20;99.90;;;;;;5071436;28;20055;-46
2020/12/19 05:11:18;;;;;;;108.78;6.53;;;0.30;99.90;;;;;;5070175;28;20610;-46
2020/12/19 05:13:45;;;;;;;6.60;2.63;;;0.30;99.90;;;;;;5072425;28;20056;-47
2020/12/19 05:16:14;;;;;;;2.00;0.73;;;0.30;99.90;;;;;;5074585;28;20057;-46
2020/12/19 05:18:42;;;;;;;1.23;1.10;;;0.40;99.90;;;;;;5080389;28;20133;-46
2020/12/19 05:21:10;;;;;;;10.27;2.53;;;0.60;99.90;;;;;;5065992;28;20045;-46
2020/12/19 05:23:42;;;;;;;7.25;2.08;;;0.60;99.90;;;;;;5079514;28;20045;-47
2020/12/19 05:26:13;;;;;;;4.53;2.13;;;0.50;99.90;;;;;;5068565;28;20040;-46
2020/12/19 05:28:42;;;;;;;3.75;2.38;;;0.50;99.90;;;;;;5071004;28;20058;-46
2020/12/19 05:31:09;;;;;;;5.13;2.28;;;0.50;99.90;;;;;;5070689;28;20048;-47
2020/12/19 05:33:43;;;;;;;9.93;5.03;;;0.60;99.90;;;;;;5069236;28;20503;-46
2020/12/19 05:36:21;;;;;;;9.80;5.68;;;0.60;99.90;;;;;;5057837;28;20054;-47
2020/12/19 05:38:48;;;;;;;5.68;4.55;;;0.60;99.90;;;;;;5070110;28;20381;-46
2020/12/19 05:41:15;;;;;;;5.65;3.60;;;0.60;99.90;;;;;;5069918;28;20080;-46
2020/12/19 05:43:51;;;;;;;8.35;4.15;;;0.60;99.90;;;;;;5081093;28;20054;-46
2020/12/19 05:46:28;;;;;;;5.53;4.05;;;0.60;99.90;;;;;;5072494;28;20072;-46
2020/12/19 05:48:56;;;;;;;5.47;4.53;;;0.70;99.90;;;;;;5073179;28;20461;-46
2020/12/19 05:51:26;;;;;;;9.18;4.97;;;0.60;99.90;;;;;;5065540;28;20053;-46
2020/12/19 05:53:53;;;;;;;98.47;9.27;;;0.50;99.90;;;;;;5062421;28;20052;-47
2020/12/19 05:56:21;;;;;;;203.63;10.77;;;0.30;99.90;;;;;;5073851;28;20044;-46
2020/12/19 05:58:48;;;;;;;108.35;8.38;;;0.00;99.90;;;;;;5079181;28;20055;-46
2020/12/19 06:01:16;;;;;;;270.23;14.73;;;0.00;99.90;;;;;;5072221;28;20076;-46
2020/12/19 06:03:47;;;;;;;170.65;9.48;;;-0.10;99.90;;;;;;5070296;28;20055;-46
2020/12/19 06:06:16;;;;;;;131.83;8.37;;;-0.20;99.90;;;;;;5054183;28;20037;-46
2020/12/19 06:08:43;;;;;;;196.43;10.45;;;-0.20;99.90;;;;;;5070416;28;20053;-46
2020/12/19 06:11:15;;;;;;;304.75;13.27;;;-0.30;99.90;;;;;;5069088;28;20051;-46
2020/12/19 06:13:55;;;;;;;143.82;10.30;;;-0.40;99.90;;;;;;5071346;28;20056;-46
2020/12/19 06:16:23;;;;;;;156.25;8.05;;;-0.40;99.90;;;;;;5065780;28;20490;-46
2020/12/19 06:18:54;;;;;;;180.15;7.32;;;-0.40;99.90;;;;;;5081542;28;20048;-46
2020/12/19 06:21:21;;;;;;;113.05;6.60;;;-0.50;99.90;;;;;;5068068;28;20040;-46
2020/12/19 06:23:47;;;;;;;92.57;6.10;;;-0.60;99.90;;;;;;5075898;28;20045;-46
2020/12/19 06:26:14;;;;;;;52.63;3.28;;;-0.60;99.90;;;;;;5062821;28;20110;-45
2020/12/19 06:28:41;;;;;;;70.18;4.70;;;-0.60;99.90;;;;;;5072383;28;20060;-46
2020/12/19 06:31:28;;;;;;;56.30;2.28;;;-0.50;99.90;;;;;;5071449;28;20064;-46
2020/12/19 06:33:55;;;;;;;22.52;1.42;;;-0.50;99.90;;;;;;5069933;28;20044;-46
2020/12/19 06:36:28;;;;;;;39.75;2.50;;;-0.40;99.90;;;;;;5067020;28;20528;-46
2020/12/19 06:38:54;;;;;;;30.45;1.48;;;-0.30;99.90;;;;;;5069215;28;20052;-46
2020/12/19 06:41:40;;;;;;;14.75;1.17;;;-0.20;99.90;;;;;;5066203;28;20071;-46
2020/12/19 06:44:08;;;;;;;8.63;0.50;;;-0.10;99.90;;;;;;5059768;28;20371;-47
2020/12/19 06:46:34;;;;;;;22.05;0.55;;;0.00;99.90;;;;;;5071169;28;20040;-46
2020/12/19 06:49:21;;;;;;;32.50;0.50;;;0.10;99.90;;;;;;5070445;28;20477;-46
2020/12/19 06:52:05;;;;;;;30.63;2.30;;;0.10;99.90;;;;;;5062761;28;20056;-47
2020/12/19 06:54:32;;;;;;;33.17;0.90;;;0.00;99.90;;;;;;5061663;28;20063;-46
2020/12/19 06:57:00;;;;;;;48.17;0.90;;;-0.10;99.90;;;;;;5055156;28;20048;-45
2020/12/19 06:59:30;;;;;;;0.70;0.60;;;0.00;99.90;;;;;;5065037;28;20429;-46
2020/12/19 07:02:20;;;;;;;0.95;0.60;;;0.20;99.90;;;;;;5070752;28;20060;-46
2020/12/19 07:04:48;;;;;;;3.83;0.73;;;0.30;99.90;;;;;;5057472;28;20052;-46
2020/12/19 07:07:27;;;;;;;36.60;1.25;;;0.30;99.90;;;;;;5061476;28;20045;-47
2020/12/19 07:09:58;;;;;;;178.13;9.02;;;0.20;99.90;;;;;;5072338;28;20048;-46
2020/12/19 07:12:33;;;;;;;18.48;9.05;;;0.20;99.90;;;;;;5072896;28;20044;-46
2020/12/19 07:15:00;;;;;;;9.10;6.70;;;0.20;99.90;;;;;;5060293;28;20053;-46
2020/12/19 07:17:27;;;;;;;6.15;4.53;;;0.20;99.90;;;;;;5071513;28;20060;-46
2020/12/19 07:20:01;;;;;;;4.97;3.50;;;0.30;99.90;;;;;;5072628;28;20053;-46
2020/12/19 07:22:28;;;;;;;17.20;6.50;;;0.20;99.90;;;;;;5080644;28;20043;-48
2020/12/19 07:24:55;;;;;;;24.25;10.02;;;0.30;99.90;;;;;;5079051;28;20044;-49
2020/12/19 07:27:22;;;;;;;31.67;17.00;;;0.40;99.90;;;;;;5066921;28;20470;-48
2020/12/19 07:29:49;;;;;;;12.60;6.38;;;0.40;99.90;;;;;;5070504;28;20073;-48
2020/12/19 07:32:16;;;;;;;15.20;9.02;;;0.50;99.90;;;;;;5071795;28;20044;-48
2020/12/19 07:34:43;;;;;;;39.95;10.85;;;0.60;99.90;;;;;;5067142;28;20053;-48
2020/12/19 07:37:10;;;;;;;110.90;13.45;;;0.60;99.90;;;;;;5066695;28;20482;-48
2020/12/19 07:39:37;;;;;;;167.70;22.27;;;0.50;99.90;;;;;;5071721;28;20049;-48
2020/12/19 07:42:06;;;;;;;69.97;16.50;;;0.30;99.90;;;;;;5071809;28;20060;-49
2020/12/19 07:44:34;;;;;;;22.38;12.40;;;0.30;99.90;;;;;;5057288;28;20050;-49
2020/12/19 07:47:09;;;;;;;76.30;21.17;;;0.40;99.90;;;;;;5069105;28;20056;-48
2020/12/19 07:49:42;;;;;;;48.65;13.05;;;0.50;99.90;;;;;;5071890;28;20072;-47
2020/12/19 07:52:19;;;;;;;22.92;12.35;;;0.40;99.90;;;;;;5072941;28;20151;-49
2020/12/19 07:54:57;;;;;;;19.42;11.85;;;0.70;99.90;;;;;;5062859;28;20044;-48
2020/12/19 07:57:26;;;;;;;82.47;16.00;;;0.80;99.90;;;;;;5057466;28;20049;-48
2020/12/19 07:59:54;;;;;;;66.63;23.33;;;0.70;99.90;;;;;;5068505;28;20056;-49
2020/12/19 08:02:22;;;;;;;48.95;18.88;;;0.70;99.90;;;;;;5070497;28;20044;-48
2020/12/19 08:04:56;;;;;;;41.50;16.30;;;0.70;99.90;;;;;;5072369;28;20063;-47
2020/12/19 08:07:25;;;;;;;62.22;29.95;;;0.70;99.90;;;;;;5070831;28;20049;-48
2020/12/19 08:10:11;;;;;;;55.88;14.20;;;0.80;99.90;;;;;;5059822;28;20064;-48
2020/12/19 08:12:39;;;;;;;57.38;7.32;;;0.80;99.90;;;;;;5067332;28;20098;-48
2020/12/19 08:15:09;;;;;;;4.00;2.15;;;1.10;99.90;;;;;;5055163;28;20501;-48
2020/12/19 08:17:47;;;;;;;2.45;1.00;;;1.30;99.90;;;;;;5067179;28;20071;-48
2020/12/19 08:20:18;;;;;;;5.15;1.20;;;1.50;99.90;;;;;;5059834;28;20379;-48
2020/12/19 08:22:46;;;;;;;1.38;0.98;;;1.70;99.90;;;;;;5067604;28;20049;-48
2020/12/19 08:25:13;;;;;;;26.00;10.63;;;1.80;99.90;;;;;;5065145;28;20047;-48
2020/12/19 08:27:44;;;;;;;4.00;1.63;;;1.80;99.90;;;;;;5061151;28;20441;-49
2020/12/19 08:30:12;;;;;;;12.13;6.13;;;1.90;99.90;;;;;;5068327;28;20460;-48
2020/12/19 08:32:51;;;;;;;2.72;1.00;;;1.80;99.90;;;;;;5068371;28;20044;-50
2020/12/19 08:35:30;;;;;;;10.93;5.90;;;1.80;99.90;;;;;;5070688;28;20107;-48
2020/12/19 08:38:10;;;;;;;7.30;3.90;;;1.90;99.90;;;;;;5070151;28;20048;-49
2020/12/19 08:40:45;;;;;;;4.63;2.80;;;1.90;99.90;;;;;;5067328;28;20057;-48
2020/12/19 08:43:14;;;;;;;6.32;3.15;;;2.20;99.90;;;;;;5068634;28;20055;-48
2020/12/19 08:45:47;;;;;;;10.38;7.38;;;2.20;99.90;;;;;;5071555;28;20047;-48
2020/12/19 08:48:21;;;;;;;;;;;2.10;99.90;;;;;;5070870;28;20203;-49
2020/12/19 08:50:49;;;;;;;16.27;10.35;;;2.20;99.90;;;;;;5069894;28;20372;-49
2020/12/19 08:53:23;;;;;;;21.67;10.23;;;2.20;99.90;;;;;;5068953;28;20045;-49
2020/12/19 08:55:51;;;;;;;12.10;7.40;;;2.20;99.90;;;;;;5068485;28;20056;-48
2020/12/19 08:58:28;;;;;;;6.85;6.05;;;2.10;99.90;;;;;;5068527;28;20048;-48
2020/12/19 09:00:57;;;;;;;13.32;8.52;;;2.10;99.90;;;;;;5062984;28;20069;-48
2020/12/19 09:03:30;;;;;;;15.68;8.40;;;2.20;99.90;;;;;;5060172;28;20048;-49
2020/12/19 09:06:04;;;;;;;20.92;11.45;;;2.20;99.90;;;;;;5067156;28;20051;-48
2020/12/19 09:08:34;;;;;;;;;;;2.20;99.90;;;;;;5066591;28;20071;-48
2020/12/19 09:11:01;;;;;;;28.42;12.27;;;2.10;99.90;;;;;;5052848;28;20392;-49
2020/12/19 09:13:28;;;;;;;11.05;6.10;;;2.20;99.90;;;;;;5069567;28;20045;-49
2020/12/19 09:15:57;;;;;;;7.75;6.35;;;2.30;99.90;;;;;;5070220;28;20055;-49
2020/12/19 09:18:29;;;;;;;5.30;4.82;;;2.40;99.90;;;;;;5062247;28;20044;-48
2020/12/19 09:20:58;;;;;;;7.45;6.30;;;2.60;99.90;;;;;;5063015;28;20056;-48
2020/12/19 09:23:26;;;;;;;62.85;8.55;;;2.60;99.90;;;;;;5071226;28;20049;-48
2020/12/19 09:25:55;;;;;;;11.07;9.32;;;2.70;99.90;;;;;;5067816;28;20473;-48
2020/12/19 09:28:22;;;;;;;1.65;1.00;;;2.80;99.90;;;;;;5053211;28;20055;-48
2020/12/19 09:30:53;;;;;;;3.58;3.22;;;2.90;99.90;;;;;;5069930;28;20044;-49
2020/12/19 09:33:20;;;;;;;46.80;10.77;;;3.00;99.90;;;;;;5070380;28;20478;-49
2020/12/19 09:35:48;;;;;;;10.90;5.40;;;3.20;99.90;;;;;;5069930;28;20166;-48
2020/12/19 09:38:15;;;;;;;1.10;1.00;;;3.30;99.90;;;;;;5069286;28;20052;-49
2020/12/19 09:40:42;;;;;;;2.75;1.00;;;3.40;99.90;;;;;;5065687;28;20044;-50
2020/12/19 09:43:09;;;;;;;7.35;1.42;;;3.60;99.90;;;;;;5067900;28;20044;-49
2020/12/19 09:45:37;;;;;;;1.30;1.20;;;3.80;99.90;;;;;;5060222;28;20036;-48
2020/12/19 09:48:04;;;;;;;2.70;1.10;;;4.00;99.90;;;;;;5063128;28;20041;-48
2020/12/19 09:50:31;;;;;;;12.88;8.85;;;4.10;99.90;;;;;;5056786;28;20417;-49
2020/12/19 09:52:57;;;;;;;9.13;6.25;;;4.30;99.90;;;;;;5060190;28;20444;-49
2020/12/19 09:55:27;;;;;;;4.72;1.35;;;4.40;99.90;;;;;;5063686;28;20055;-49
2020/12/19 09:57:55;;;;;;;2.35;1.42;;;4.50;99.90;;;;;;5069529;28;20048;-49
2020/12/19 10:00:22;;;;;;;9.38;5.32;;;4.50;99.90;;;;;;5068190;28;20055;-48
2020/12/19 10:02:53;;;;;;;21.38;4.88;;;4.60;99.90;;;;;;5051680;28;20052;-49
2020/12/19 10:05:20;;;;;;;4.72;1.60;;;4.70;99.90;;;;;;5069055;28;20094;-49
2020/12/19 10:07:47;;;;;;;16.50;10.57;;;4.80;99.90;;;;;;5068842;28;20048;-48
2020/12/19 10:10:13;;;;;;;23.98;11.98;;;4.90;99.90;;;;;;5058331;28;20526;-48
2020/12/19 10:12:40;;;;;;;6.15;3.50;;;5.00;99.90;;;;;;5062781;28;20048;-48
2020/12/19 10:15:07;;;;;;;4.70;2.72;;;5.10;99.90;;;;;;5070001;28;20052;-49
2020/12/19 10:17:34;;;;;;;1.52;0.70;;;5.30;99.90;;;;;;5068093;28;20055;-48
2020/12/19 10:20:00;;;;;;;3.15;0.50;;;5.40;99.90;;;;;;5065193;28;20040;-48
2020/12/19 10:22:31;;;;;;;0.70;0.60;;;5.60;99.90;;;;;;5067200;28;20049;-50
2020/12/19 10:25:00;;;;;;;2.00;0.60;;;5.70;99.90;;;;;;5058368;28;20498;-48
2020/12/19 10:27:26;;;;;;;1.00;0.60;;;5.90;99.90;;;;;;5068544;28;20068;-48
2020/12/19 10:29:53;;;;;;;5.72;3.25;;;6.10;99.90;;;;;;5067886;28;20063;-49
2020/12/19 10:32:20;;;;;;;19.95;3.83;;;6.50;99.90;;;;;;5053596;28;20059;-48
2020/12/19 10:34:47;;;;;;;6.13;3.67;;;6.60;99.90;;;;;;5069787;28;20055;-48
2020/12/19 10:37:14;;;;;;;13.27;7.65;;;6.70;99.90;;;;;;5074399;28;20045;-48
2020/12/19 10:39:40;;;;;;;469.10;61.58;;;7.00;99.90;;;;;;5075055;28;20060;-49
2020/12/19 10:42:07;;;;;;;7.95;5.18;;;6.90;99.90;;;;;;5075946;28;20067;-49
2020/12/19 10:44:34;;;;;;;16.70;8.73;;;7.10;99.90;;;;;;5066301;28;20056;-48
2020/12/19 10:47:00;;;;;;;5.00;3.15;;;7.60;99.90;;;;;;5074159;28;20050;-48
2020/12/19 10:49:26;;;;;;;6.50;4.93;;;7.80;99.90;;;;;;5060250;28;20049;-48
2020/12/19 10:51:53;;;;;;;6.00;3.45;;;8.10;99.90;;;;;;5071996;28;20063;-48
2020/12/19 10:54:20;;;;;;;11.60;7.47;;;8.30;99.90;;;;;;5041005;28;20085;-49
2020/12/19 10:56:55;;;;;;;6.10;4.25;;;8.20;99.90;;;;;;5076322;28;20440;-49
2020/12/19 10:59:21;;;;;;;13.75;9.35;;;8.00;99.90;;;;;;5075402;28;20481;-49
2020/12/19 11:01:49;;;;;;;28.60;10.98;;;7.90;99.90;;;;;;5075943;28;20055;-50
2020/12/19 11:04:16;;;;;;;20.58;11.30;;;7.90;99.90;;;;;;5072481;28;20076;-49
2020/12/19 11:06:43;;;;;;;22.15;11.52;;;8.00;99.90;;;;;;5072009;28;20044;-49
2020/12/19 11:09:13;;;;;;;16.13;11.27;;;8.10;99.90;;;;;;5073068;28;20481;-49
2020/12/19 11:11:40;;;;;;;15.45;12.57;;;8.20;99.90;;;;;;5066909;28;20102;-48
2020/12/19 11:14:07;;;;;;;21.42;11.02;;;8.40;99.90;;;;;;5075670;28;20040;-49
2020/12/19 11:16:34;;;;;;;9.65;6.45;;;8.40;99.90;;;;;;5074807;28;20048;-48
2020/12/19 11:19:00;;;;;;;6.63;5.80;;;8.60;99.90;;;;;;5064228;28;20378;-48
2020/12/19 11:21:26;;;;;;;7.32;6.00;;;8.60;99.90;;;;;;5068929;28;20059;-49
2020/12/19 11:23:53;;;;;;;8.02;7.28;;;8.80;99.90;;;;;;5060941;28;20641;-49
2020/12/19 11:26:20;;;;;;;10.30;4.32;;;8.80;99.90;;;;;;5070709;28;21421;-49
2020/12/19 11:28:50;;;;;;;7.43;5.00;;;8.90;99.90;;;;;;5075563;28;20048;-48
2020/12/19 11:31:25;;;;;;;6.95;3.75;;;9.00;99.90;;;;;;5075588;28;20052;-49
2020/12/19 11:33:52;;;;;;;12.48;4.63;;;9.10;99.90;;;;;;5073563;28;20067;-49
2020/12/19 11:36:19;;;;;;;4.00;2.47;;;9.20;99.90;;;;;;5074037;28;20477;-48
2020/12/19 11:38:45;;;;;;;3.30;2.17;;;9.30;99.90;;;;;;5074127;28;20052;-49
2020/12/19 11:41:13;;;;;;;2.30;1.50;;;9.50;99.90;;;;;;5075885;28;20127;-49
2020/12/19 11:43:43;;;;;;;3.08;1.40;;;9.70;99.90;;;;;;5070558;28;20127;-51
2020/12/19 11:46:10;;;;;;;3.33;1.17;;;9.90;99.90;;;;;;5060692;28;20466;-49
2020/12/19 11:48:37;;;;;;;2.22;1.20;;;10.00;99.90;;;;;;5072834;28;20061;-49
2020/12/19 11:51:03;;;;;;;3.28;1.45;;;10.30;99.90;;;;;;5071306;28;20055;-48
2020/12/19 11:53:29;;;;;;;2.00;1.08;;;10.50;99.90;;;;;;5072606;28;20064;-50
2020/12/19 11:55:56;;;;;;;1.55;1.10;;;10.70;99.90;;;;;;5069300;28;20044;-50
2020/12/19 11:58:22;;;;;;;2.75;1.30;;;10.60;99.90;;;;;;5072821;28;20052;-49
2020/12/19 12:00:49;;;;;;;2.53;1.85;;;10.60;99.90;;;;;;5070154;28;20052;-49
2020/12/19 12:03:15;;;;;;;1.30;0.98;;;10.60;99.90;;;;;;5067417;28;20051;-49
2020/12/19 12:05:42;;;;;;;7.18;2.33;;;10.30;99.90;;;;;;5071536;28;20052;-49
2020/12/19 12:08:08;;;;;;;32.60;5.60;;;10.20;99.90;;;;;;5072290;28;20055;-49
2020/12/19 12:10:35;;;;;;;2.15;1.17;;;10.30;99.90;;;;;;5072201;28;20533;-49
2020/12/19 12:13:02;;;;;;;5.25;1.65;;;10.50;99.90;;;;;;5071148;28;20055;-49
2020/12/19 12:15:28;;;;;;;3.10;1.80;;;10.90;99.90;;;;;;5072754;28;20040;-49
2020/12/19 12:17:54;;;;;;;8.43;2.00;;;11.40;99.90;;;;;;5073056;28;20051;-50
2020/12/19 12:20:21;;;;;;;3.55;1.38;;;11.60;99.90;;;;;;5076145;28;20378;-49
2020/12/19 12:22:47;;;;;;;3.05;1.30;;;11.60;99.90;;;;;;5069146;28;20045;-49
2020/12/19 12:25:14;;;;;;;1.30;1.10;;;11.80;99.90;;;;;;5073294;28;20055;-49
2020/12/19 12:27:41;;;;;;;1.30;1.10;;;11.70;99.90;;;;;;5076145;28;20041;-50
2020/12/19 12:30:08;;;;;;;1.88;1.00;;;12.00;99.90;;;;;;5072757;28;20057;-49
2020/12/19 12:32:35;;;;;;;2.03;1.23;;;11.80;99.90;;;;;;5070549;28;20053;-49
2020/12/19 12:35:01;;;;;;;2.67;1.52;;;11.70;99.90;;;;;;5067979;28;20055;-50
2020/12/19 12:37:28;;;;;;;3.25;1.45;;;11.60;99.90;;;;;;5063740;28;20508;-49
2020/12/19 12:39:54;;;;;;;1.40;1.30;;;11.60;99.90;;;;;;5068432;28;20040;-50
2020/12/19 12:42:22;;;;;;;2.80;1.00;;;11.70;99.90;;;;;;5057357;28;20040;-49
2020/12/19 12:44:50;;;;;;;1.25;0.80;;;11.90;99.90;;;;;;5071077;28;20053;-50
2020/12/19 12:47:17;;;;;;;4.45;1.17;;;12.20;99.90;;;;;;5069996;28;20047;-49
2020/12/19 12:49:44;;;;;;;1.25;0.65;;;12.10;99.90;;;;;;5061117;28;20041;-49
2020/12/19 12:52:11;;;;;;;2.10;0.63;;;12.00;99.90;;;;;;5069673;28;20053;-49
2020/12/19 12:54:37;;;;;;;3.03;0.60;;;11.60;99.90;;;;;;5070136;28;20071;-51